sensor_id;sensor_type;location;lat;lon;timestamp;P1;durP1;ratioP1;P2;durP2;ratioP2
13250;SDS011;6692;50.710;7.180;2022-10-15T00:01:46;145.70;;;140.57;;
13250;SDS011;6692;50.710;7.180;2022-10-15T00:03:47;148.27;;;143.07;;
13250;SDS011;6692;50.710;7.180;2022-10-15T00:05:47;144.97;;;139.97;;
13250;SDS011;6692;50.710;7.180;2022-10-15T00:07:48;150.60;;;145.33;;
13250;SDS011;6692;50.710;7.180;2022-10-15T00:09:49;147.43;;;142.30;;
13250;SDS011;6692;50.710;7.180;2022-10-15T00:11:50;144.80;;;139.63;;
13250;SDS011;6692;50.710;7.180;2022-10-15T00:13:52;143.83;;;138.77;;
13250;SDS011;6692;50.710;7.180;2022-10-15T00:15:51;137.50;;;132.70;;
13250;SDS011;6692;50.710;7.180;2022-10-15T00:17:53;137.07;;;132.23;;
13250;SDS011;6692;50.710;7.180;2022-10-15T00:19:54;138.77;;;133.90;;
13250;SDS011;6692;50.710;7.180;2022-10-15T00:21:55;136.00;;;131.17;;
13250;SDS011;6692;50.710;7.180;2022-10-15T00:23:55;130.63;;;125.83;;
13250;SDS011;6692;50.710;7.180;2022-10-15T00:26:00;136.60;;;131.83;;
13250;SDS011;6692;50.710;7.180;2022-10-15T00:27:59;137.70;;;132.83;;
13250;SDS011;6692;50.710;7.180;2022-10-15T00:30:01;134.93;;;130.13;;
13250;SDS011;6692;50.710;7.180;2022-10-15T00:32:02;134.97;;;130.27;;
13250;SDS011;6692;50.710;7.180;2022-10-15T00:34:02;142.57;;;137.60;;
13250;SDS011;6692;50.710;7.180;2022-10-15T00:36:04;136.77;;;132.00;;
13250;SDS011;6692;50.710;7.180;2022-10-15T00:38:04;133.93;;;129.23;;
13250;SDS011;6692;50.710;7.180;2022-10-15T00:40:05;136.13;;;131.40;;
13250;SDS011;6692;50.710;7.180;2022-10-15T00:42:08;131.90;;;127.30;;
13250;SDS011;6692;50.710;7.180;2022-10-15T00:46:22;113.50;;;109.50;;
13250;SDS011;6692;50.710;7.180;2022-10-15T00:48:36;120.53;;;116.20;;
13250;SDS011;6692;50.710;7.180;2022-10-15T00:50:37;120.03;;;115.73;;
13250;SDS011;6692;50.710;7.180;2022-10-15T00:52:44;124.17;;;119.80;;
13250;SDS011;6692;50.710;7.180;2022-10-15T00:54:44;118.37;;;114.20;;
13250;SDS011;6692;50.710;7.180;2022-10-15T00:56:44;125.83;;;121.47;;
13250;SDS011;6692;50.710;7.180;2022-10-15T00:58:44;119.33;;;115.13;;
13250;SDS011;6692;50.710;7.180;2022-10-15T01:00:45;121.33;;;117.10;;
13250;SDS011;6692;50.710;7.180;2022-10-15T01:02:46;119.40;;;115.23;;
13250;SDS011;6692;50.710;7.180;2022-10-15T01:04:46;120.67;;;116.43;;
13250;SDS011;6692;50.710;7.180;2022-10-15T01:06:47;121.57;;;117.30;;
13250;SDS011;6692;50.710;7.180;2022-10-15T01:08:48;119.43;;;115.20;;
13250;SDS011;6692;50.710;7.180;2022-10-15T01:10:53;113.13;;;109.13;;
13250;SDS011;6692;50.710;7.180;2022-10-15T01:12:53;127.53;;;123.03;;
13250;SDS011;6692;50.710;7.180;2022-10-15T01:15:12;113.73;;;109.77;;
13250;SDS011;6692;50.710;7.180;2022-10-15T01:17:20;113.93;;;109.97;;
13250;SDS011;6692;50.710;7.180;2022-10-15T01:19:30;118.77;;;114.63;;
13250;SDS011;6692;50.710;7.180;2022-10-15T01:21:37;119.17;;;115.03;;
13250;SDS011;6692;50.710;7.180;2022-10-15T01:24:50;120.93;;;116.73;;
13250;SDS011;6692;50.710;7.180;2022-10-15T01:26:06;106.03;;;102.33;;
13250;SDS011;6692;50.710;7.180;2022-10-15T01:28:12;123.30;;;119.03;;
13250;SDS011;6692;50.710;7.180;2022-10-15T01:30:21;116.07;;;112.03;;
13250;SDS011;6692;50.710;7.180;2022-10-15T01:32:40;105.97;;;102.17;;
13250;SDS011;6692;50.710;7.180;2022-10-15T01:34:41;117.43;;;112.90;;
13250;SDS011;6692;50.710;7.180;2022-10-15T01:36:43;115.83;;;111.80;;
13250;SDS011;6692;50.710;7.180;2022-10-15T01:38:45;122.57;;;118.27;;
13250;SDS011;6692;50.710;7.180;2022-10-15T01:40:47;116.57;;;112.40;;
13250;SDS011;6692;50.710;7.180;2022-10-15T01:42:50;114.83;;;110.83;;
13250;SDS011;6692;50.710;7.180;2022-10-15T01:44:58;114.73;;;110.63;;
13250;SDS011;6692;50.710;7.180;2022-10-15T01:47:00;119.80;;;115.57;;
13250;SDS011;6692;50.710;7.180;2022-10-15T01:49:08;116.33;;;112.30;;
13250;SDS011;6692;50.710;7.180;2022-10-15T01:51:09;127.97;;;123.53;;
13250;SDS011;6692;50.710;7.180;2022-10-15T01:53:10;126.33;;;121.93;;
13250;SDS011;6692;50.710;7.180;2022-10-15T01:55:11;130.30;;;125.80;;
13250;SDS011;6692;50.710;7.180;2022-10-15T01:57:11;129.17;;;124.67;;
13250;SDS011;6692;50.710;7.180;2022-10-15T01:59:12;136.00;;;131.30;;
13250;SDS011;6692;50.710;7.180;2022-10-15T02:01:13;129.43;;;124.97;;
13250;SDS011;6692;50.710;7.180;2022-10-15T02:03:13;130.17;;;125.60;;
13250;SDS011;6692;50.710;7.180;2022-10-15T02:05:15;129.00;;;124.53;;
13250;SDS011;6692;50.710;7.180;2022-10-15T02:07:23;127.43;;;122.90;;
13250;SDS011;6692;50.710;7.180;2022-10-15T02:09:31;133.97;;;129.30;;
13250;SDS011;6692;50.710;7.180;2022-10-15T02:11:44;116.27;;;112.20;;
13250;SDS011;6692;50.710;7.180;2022-10-15T02:13:51;123.43;;;119.13;;
13250;SDS011;6692;50.710;7.180;2022-10-15T02:15:56;131.23;;;126.67;;
13250;SDS011;6692;50.710;7.180;2022-10-15T02:18:09;114.37;;;110.33;;
13250;SDS011;6692;50.710;7.180;2022-10-15T02:20:13;129.53;;;125.03;;
13250;SDS011;6692;50.710;7.180;2022-10-15T02:22:14;128.70;;;124.20;;
13250;SDS011;6692;50.710;7.180;2022-10-15T02:24:16;137.53;;;132.83;;
13250;SDS011;6692;50.710;7.180;2022-10-15T02:26:16;126.23;;;121.83;;
13250;SDS011;6692;50.710;7.180;2022-10-15T02:28:17;128.60;;;124.00;;
13250;SDS011;6692;50.710;7.180;2022-10-15T02:30:17;133.20;;;128.57;;
13250;SDS011;6692;50.710;7.180;2022-10-15T02:32:19;132.53;;;127.93;;
13250;SDS011;6692;50.710;7.180;2022-10-15T02:34:20;125.43;;;120.93;;
13250;SDS011;6692;50.710;7.180;2022-10-15T02:36:20;133.50;;;128.90;;
13250;SDS011;6692;50.710;7.180;2022-10-15T02:38:21;127.00;;;122.57;;
13250;SDS011;6692;50.710;7.180;2022-10-15T02:40:23;128.77;;;124.23;;
13250;SDS011;6692;50.710;7.180;2022-10-15T02:42:22;126.00;;;121.57;;
13250;SDS011;6692;50.710;7.180;2022-10-15T02:44:23;134.67;;;130.00;;
13250;SDS011;6692;50.710;7.180;2022-10-15T02:46:24;135.43;;;130.73;;
13250;SDS011;6692;50.710;7.180;2022-10-15T02:48:24;131.87;;;127.20;;
13250;SDS011;6692;50.710;7.180;2022-10-15T02:50:25;124.37;;;119.97;;
13250;SDS011;6692;50.710;7.180;2022-10-15T02:52:26;127.27;;;122.77;;
13250;SDS011;6692;50.710;7.180;2022-10-15T02:54:26;115.70;;;111.60;;
13250;SDS011;6692;50.710;7.180;2022-10-15T02:56:27;110.10;;;106.20;;
13250;SDS011;6692;50.710;7.180;2022-10-15T02:58:28;107.73;;;103.90;;
13250;SDS011;6692;50.710;7.180;2022-10-15T03:00:28;110.67;;;106.77;;
13250;SDS011;6692;50.710;7.180;2022-10-15T03:02:29;115.40;;;111.33;;
13250;SDS011;6692;50.710;7.180;2022-10-15T03:04:30;113.30;;;109.33;;
13250;SDS011;6692;50.710;7.180;2022-10-15T03:06:30;111.37;;;107.47;;
13250;SDS011;6692;50.710;7.180;2022-10-15T03:08:31;111.43;;;107.40;;
13250;SDS011;6692;50.710;7.180;2022-10-15T03:10:32;110.77;;;106.90;;
13250;SDS011;6692;50.710;7.180;2022-10-15T03:12:32;107.97;;;104.20;;
13250;SDS011;6692;50.710;7.180;2022-10-15T03:14:33;102.97;;;99.37;;
13250;SDS011;6692;50.710;7.180;2022-10-15T03:16:34;100.93;;;97.43;;
13250;SDS011;6692;50.710;7.180;2022-10-15T03:18:35;107.70;;;103.90;;
13250;SDS011;6692;50.710;7.180;2022-10-15T03:20:36;104.70;;;100.87;;
13250;SDS011;6692;50.710;7.180;2022-10-15T03:22:36;106.80;;;103.03;;
13250;SDS011;6692;50.710;7.180;2022-10-15T03:24:37;108.63;;;104.83;;
13250;SDS011;6692;50.710;7.180;2022-10-15T03:26:38;107.90;;;104.13;;
13250;SDS011;6692;50.710;7.180;2022-10-15T03:28:38;116.40;;;112.33;;
13250;SDS011;6692;50.710;7.180;2022-10-15T03:30:39;109.33;;;105.53;;
13250;SDS011;6692;50.710;7.180;2022-10-15T03:32:39;105.33;;;101.63;;
13250;SDS011;6692;50.710;7.180;2022-10-15T03:34:40;102.43;;;98.87;;
13250;SDS011;6692;50.710;7.180;2022-10-15T03:36:41;98.03;;;94.63;;
13250;SDS011;6692;50.710;7.180;2022-10-15T03:38:42;105.13;;;101.50;;
13250;SDS011;6692;50.710;7.180;2022-10-15T03:40:44;94.03;;;90.63;;
13250;SDS011;6692;50.710;7.180;2022-10-15T03:42:48;99.50;;;96.00;;
13250;SDS011;6692;50.710;7.180;2022-10-15T03:44:45;101.93;;;98.23;;
13250;SDS011;6692;50.710;7.180;2022-10-15T03:46:46;101.43;;;97.93;;
13250;SDS011;6692;50.710;7.180;2022-10-15T03:48:48;103.83;;;100.23;;
13250;SDS011;6692;50.710;7.180;2022-10-15T03:50:48;98.57;;;95.17;;
13250;SDS011;6692;50.710;7.180;2022-10-15T03:52:49;106.27;;;102.43;;
13250;SDS011;6692;50.710;7.180;2022-10-15T03:54:49;103.17;;;99.57;;
13250;SDS011;6692;50.710;7.180;2022-10-15T03:56:50;104.83;;;101.13;;
13250;SDS011;6692;50.710;7.180;2022-10-15T03:58:51;109.73;;;105.93;;
13250;SDS011;6692;50.710;7.180;2022-10-15T04:00:51;107.27;;;103.47;;
13250;SDS011;6692;50.710;7.180;2022-10-15T04:02:52;110.60;;;106.77;;
13250;SDS011;6692;50.710;7.180;2022-10-15T04:04:53;113.47;;;109.50;;
13250;SDS011;6692;50.710;7.180;2022-10-15T04:06:53;105.07;;;101.40;;
13250;SDS011;6692;50.710;7.180;2022-10-15T04:08:54;106.57;;;102.87;;
13250;SDS011;6692;50.710;7.180;2022-10-15T04:10:55;100.70;;;97.20;;
13250;SDS011;6692;50.710;7.180;2022-10-15T04:12:55;106.50;;;102.80;;
13250;SDS011;6692;50.710;7.180;2022-10-15T04:14:56;103.97;;;100.33;;
13250;SDS011;6692;50.710;7.180;2022-10-15T04:16:56;102.90;;;99.30;;
13250;SDS011;6692;50.710;7.180;2022-10-15T04:18:57;93.30;;;90.00;;
13250;SDS011;6692;50.710;7.180;2022-10-15T04:20:58;97.13;;;93.77;;
13250;SDS011;6692;50.710;7.180;2022-10-15T04:22:58;95.77;;;92.37;;
13250;SDS011;6692;50.710;7.180;2022-10-15T04:24:59;91.33;;;88.13;;
13250;SDS011;6692;50.710;7.180;2022-10-15T04:27:00;93.83;;;90.43;;
13250;SDS011;6692;50.710;7.180;2022-10-15T04:29:00;93.33;;;89.77;;
13250;SDS011;6692;50.710;7.180;2022-10-15T04:31:02;93.23;;;89.90;;
13250;SDS011;6692;50.710;7.180;2022-10-15T04:33:02;90.80;;;87.53;;
13250;SDS011;6692;50.710;7.180;2022-10-15T04:35:03;87.27;;;84.17;;
13250;SDS011;6692;50.710;7.180;2022-10-15T04:37:04;81.90;;;78.97;;
13250;SDS011;6692;50.710;7.180;2022-10-15T04:39:05;79.83;;;77.03;;
13250;SDS011;6692;50.710;7.180;2022-10-15T04:41:06;73.17;;;70.47;;
13250;SDS011;6692;50.710;7.180;2022-10-15T04:43:06;78.60;;;75.80;;
13250;SDS011;6692;50.710;7.180;2022-10-15T04:45:08;81.23;;;78.37;;
13250;SDS011;6692;50.710;7.180;2022-10-15T04:47:08;77.83;;;74.97;;
13250;SDS011;6692;50.710;7.180;2022-10-15T04:49:10;79.83;;;76.97;;
13250;SDS011;6692;50.710;7.180;2022-10-15T04:51:11;80.17;;;77.37;;
13250;SDS011;6692;50.710;7.180;2022-10-15T04:53:12;85.53;;;82.53;;
13250;SDS011;6692;50.710;7.180;2022-10-15T04:55:12;92.30;;;89.10;;
13250;SDS011;6692;50.710;7.180;2022-10-15T04:57:13;88.07;;;84.97;;
13250;SDS011;6692;50.710;7.180;2022-10-15T04:59:14;90.13;;;86.93;;
13250;SDS011;6692;50.710;7.180;2022-10-15T05:01:17;91.80;;;88.60;;
13250;SDS011;6692;50.710;7.180;2022-10-15T05:03:15;93.73;;;90.43;;
13250;SDS011;6692;50.710;7.180;2022-10-15T05:05:16;96.63;;;93.23;;
13250;SDS011;6692;50.710;7.180;2022-10-15T05:07:17;97.50;;;94.10;;
13250;SDS011;6692;50.710;7.180;2022-10-15T05:09:19;89.97;;;86.77;;
13250;SDS011;6692;50.710;7.180;2022-10-15T05:11:21;89.77;;;86.63;;
13250;SDS011;6692;50.710;7.180;2022-10-15T05:13:21;83.97;;;80.97;;
13250;SDS011;6692;50.710;7.180;2022-10-15T05:15:24;91.00;;;87.80;;
13250;SDS011;6692;50.710;7.180;2022-10-15T05:17:24;83.60;;;80.67;;
13250;SDS011;6692;50.710;7.180;2022-10-15T05:19:24;86.40;;;83.40;;
13250;SDS011;6692;50.710;7.180;2022-10-15T05:21:25;92.20;;;89.00;;
13250;SDS011;6692;50.710;7.180;2022-10-15T05:23:26;88.13;;;85.03;;
13250;SDS011;6692;50.710;7.180;2022-10-15T05:25:27;90.50;;;87.20;;
13250;SDS011;6692;50.710;7.180;2022-10-15T05:27:28;88.57;;;85.47;;
13250;SDS011;6692;50.710;7.180;2022-10-15T05:29:29;84.10;;;81.10;;
13250;SDS011;6692;50.710;7.180;2022-10-15T05:31:30;88.50;;;85.40;;
13250;SDS011;6692;50.710;7.180;2022-10-15T05:33:30;89.27;;;86.10;;
13250;SDS011;6692;50.710;7.180;2022-10-15T05:35:31;86.23;;;83.20;;
13250;SDS011;6692;50.710;7.180;2022-10-15T05:37:32;86.00;;;82.93;;
13250;SDS011;6692;50.710;7.180;2022-10-15T05:39:32;89.70;;;86.53;;
13250;SDS011;6692;50.710;7.180;2022-10-15T05:41:33;97.13;;;93.73;;
13250;SDS011;6692;50.710;7.180;2022-10-15T05:43:33;88.63;;;85.50;;
13250;SDS011;6692;50.710;7.180;2022-10-15T05:45:34;90.03;;;86.77;;
13250;SDS011;6692;50.710;7.180;2022-10-15T05:47:36;86.77;;;83.70;;
13250;SDS011;6692;50.710;7.180;2022-10-15T05:49:37;95.33;;;92.00;;
13250;SDS011;6692;50.710;7.180;2022-10-15T05:51:38;90.13;;;86.93;;
13250;SDS011;6692;50.710;7.180;2022-10-15T05:53:38;92.23;;;88.97;;
13250;SDS011;6692;50.710;7.180;2022-10-15T05:55:39;83.17;;;80.03;;
13250;SDS011;6692;50.710;7.180;2022-10-15T05:57:40;72.80;;;70.13;;
13250;SDS011;6692;50.710;7.180;2022-10-15T05:59:41;71.57;;;69.00;;
13250;SDS011;6692;50.710;7.180;2022-10-15T06:01:42;67.67;;;65.27;;
13250;SDS011;6692;50.710;7.180;2022-10-15T06:03:43;58.07;;;55.90;;
13250;SDS011;6692;50.710;7.180;2022-10-15T06:05:44;57.43;;;55.27;;
13250;SDS011;6692;50.710;7.180;2022-10-15T06:07:44;55.13;;;53.13;;
13250;SDS011;6692;50.710;7.180;2022-10-15T06:09:45;47.83;;;46.10;;
13250;SDS011;6692;50.710;7.180;2022-10-15T06:11:46;49.83;;;48.00;;
13250;SDS011;6692;50.710;7.180;2022-10-15T06:13:46;51.93;;;50.03;;
13250;SDS011;6692;50.710;7.180;2022-10-15T06:15:47;46.47;;;44.80;;
13250;SDS011;6692;50.710;7.180;2022-10-15T06:17:50;48.20;;;46.43;;
13250;SDS011;6692;50.710;7.180;2022-10-15T06:19:48;49.17;;;47.33;;
13250;SDS011;6692;50.710;7.180;2022-10-15T06:21:49;48.77;;;47.00;;
13250;SDS011;6692;50.710;7.180;2022-10-15T06:23:50;48.33;;;46.57;;
13250;SDS011;6692;50.710;7.180;2022-10-15T06:25:50;48.80;;;47.03;;
13250;SDS011;6692;50.710;7.180;2022-10-15T06:27:51;52.30;;;50.40;;
13250;SDS011;6692;50.710;7.180;2022-10-15T06:29:52;54.77;;;52.77;;
13250;SDS011;6692;50.710;7.180;2022-10-15T06:31:52;60.47;;;58.30;;
13250;SDS011;6692;50.710;7.180;2022-10-15T06:33:53;60.50;;;58.33;;
13250;SDS011;6692;50.710;7.180;2022-10-15T06:35:54;67.43;;;65.03;;
13250;SDS011;6692;50.710;7.180;2022-10-15T06:37:54;70.07;;;67.50;;
13250;SDS011;6692;50.710;7.180;2022-10-15T06:39:55;71.73;;;69.13;;
13250;SDS011;6692;50.710;7.180;2022-10-15T06:41:55;70.90;;;68.33;;
13250;SDS011;6692;50.710;7.180;2022-10-15T06:43:57;78.67;;;75.87;;
13250;SDS011;6692;50.710;7.180;2022-10-15T06:45:58;74.23;;;71.57;;
13250;SDS011;6692;50.710;7.180;2022-10-15T06:47:58;75.00;;;72.27;;
13250;SDS011;6692;50.710;7.180;2022-10-15T06:49:59;79.20;;;76.40;;
13250;SDS011;6692;50.710;7.180;2022-10-15T06:51:59;86.03;;;82.97;;
13250;SDS011;6692;50.710;7.180;2022-10-15T06:54:00;94.27;;;90.97;;
13250;SDS011;6692;50.710;7.180;2022-10-15T06:56:01;101.07;;;97.47;;
13250;SDS011;6692;50.710;7.180;2022-10-15T06:58:01;97.90;;;94.47;;
13250;SDS011;6692;50.710;7.180;2022-10-15T07:00:02;102.97;;;99.37;;
13250;SDS011;6692;50.710;7.180;2022-10-15T07:02:03;111.70;;;107.77;;
13250;SDS011;6692;50.710;7.180;2022-10-15T07:04:04;115.47;;;111.40;;
13250;SDS011;6692;50.710;7.180;2022-10-15T07:06:05;124.90;;;120.50;;
13250;SDS011;6692;50.710;7.180;2022-10-15T07:08:05;120.13;;;115.83;;
13250;SDS011;6692;50.710;7.180;2022-10-15T07:10:06;124.80;;;120.50;;
13250;SDS011;6692;50.710;7.180;2022-10-15T07:12:07;125.37;;;120.93;;
13250;SDS011;6692;50.710;7.180;2022-10-15T07:14:08;121.80;;;117.50;;
13250;SDS011;6692;50.710;7.180;2022-10-15T07:16:10;125.83;;;121.43;;
13250;SDS011;6692;50.710;7.180;2022-10-15T07:18:10;128.50;;;124.03;;
13250;SDS011;6692;50.710;7.180;2022-10-15T07:20:10;140.67;;;135.73;;
13250;SDS011;6692;50.710;7.180;2022-10-15T07:22:11;142.17;;;137.17;;
13250;SDS011;6692;50.710;7.180;2022-10-15T07:24:12;138.53;;;133.73;;
13250;SDS011;6692;50.710;7.180;2022-10-15T07:26:12;149.17;;;144.03;;
13250;SDS011;6692;50.710;7.180;2022-10-15T07:28:13;148.43;;;143.30;;
13250;SDS011;6692;50.710;7.180;2022-10-15T07:30:14;155.23;;;149.90;;
13250;SDS011;6692;50.710;7.180;2022-10-15T07:32:15;160.80;;;155.30;;
13250;SDS011;6692;50.710;7.180;2022-10-15T07:34:16;163.93;;;158.40;;
13250;SDS011;6692;50.710;7.180;2022-10-15T07:36:16;162.30;;;156.67;;
13250;SDS011;6692;50.710;7.180;2022-10-15T07:38:17;176.57;;;170.63;;
13250;SDS011;6692;50.710;7.180;2022-10-15T07:40:18;156.33;;;151.00;;
13250;SDS011;6692;50.710;7.180;2022-10-15T07:42:19;152.43;;;147.23;;
13250;SDS011;6692;50.710;7.180;2022-10-15T07:44:19;150.00;;;144.87;;
13250;SDS011;6692;50.710;7.180;2022-10-15T07:46:20;144.60;;;139.67;;
13250;SDS011;6692;50.710;7.180;2022-10-15T07:48:21;165.00;;;159.47;;
13250;SDS011;6692;50.710;7.180;2022-10-15T07:50:21;167.87;;;162.20;;
13250;SDS011;6692;50.710;7.180;2022-10-15T07:52:22;171.87;;;165.97;;
13250;SDS011;6692;50.710;7.180;2022-10-15T07:54:23;178.50;;;172.47;;
13250;SDS011;6692;50.710;7.180;2022-10-15T07:56:23;189.50;;;183.10;;
13250;SDS011;6692;50.710;7.180;2022-10-15T07:58:24;197.83;;;191.17;;
13250;SDS011;6692;50.710;7.180;2022-10-15T08:00:25;230.93;;;223.23;;
13250;SDS011;6692;50.710;7.180;2022-10-15T08:02:25;231.73;;;223.97;;
13250;SDS011;6692;50.710;7.180;2022-10-15T08:04:26;244.70;;;236.50;;
13250;SDS011;6692;50.710;7.180;2022-10-15T08:06:27;231.33;;;223.53;;
13250;SDS011;6692;50.710;7.180;2022-10-15T08:08:27;245.00;;;236.80;;
13250;SDS011;6692;50.710;7.180;2022-10-15T08:10:28;247.57;;;239.30;;
13250;SDS011;6692;50.710;7.180;2022-10-15T08:12:29;244.63;;;236.47;;
13250;SDS011;6692;50.710;7.180;2022-10-15T08:14:29;245.60;;;237.40;;
13250;SDS011;6692;50.710;7.180;2022-10-15T08:16:31;259.50;;;250.87;;
13250;SDS011;6692;50.710;7.180;2022-10-15T08:18:31;261.70;;;252.93;;
13250;SDS011;6692;50.710;7.180;2022-10-15T08:20:32;270.10;;;260.87;;
13250;SDS011;6692;50.710;7.180;2022-10-15T08:22:33;272.57;;;263.30;;
13250;SDS011;6692;50.710;7.180;2022-10-15T08:24:33;279.03;;;269.63;;
13250;SDS011;6692;50.710;7.180;2022-10-15T08:26:34;284.27;;;274.63;;
13250;SDS011;6692;50.710;7.180;2022-10-15T08:28:35;273.37;;;264.13;;
13250;SDS011;6692;50.710;7.180;2022-10-15T08:30:36;281.20;;;271.80;;
13250;SDS011;6692;50.710;7.180;2022-10-15T08:32:37;282.83;;;273.33;;
13250;SDS011;6692;50.710;7.180;2022-10-15T08:34:37;276.27;;;266.93;;
13250;SDS011;6692;50.710;7.180;2022-10-15T08:36:38;283.80;;;274.27;;
13250;SDS011;6692;50.710;7.180;2022-10-15T08:38:39;292.63;;;282.77;;
13250;SDS011;6692;50.710;7.180;2022-10-15T08:40:39;279.00;;;269.67;;
13250;SDS011;6692;50.710;7.180;2022-10-15T08:42:41;264.97;;;256.10;;
13250;SDS011;6692;50.710;7.180;2022-10-15T08:44:43;263.50;;;254.53;;
13250;SDS011;6692;50.710;7.180;2022-10-15T08:46:43;277.40;;;268.03;;
13250;SDS011;6692;50.710;7.180;2022-10-15T08:48:43;264.10;;;255.17;;
13250;SDS011;6692;50.710;7.180;2022-10-15T08:50:44;268.73;;;259.77;;
13250;SDS011;6692;50.710;7.180;2022-10-15T08:52:45;281.23;;;271.73;;
13250;SDS011;6692;50.710;7.180;2022-10-15T08:54:45;273.93;;;264.73;;
13250;SDS011;6692;50.710;7.180;2022-10-15T08:56:46;280.83;;;271.30;;
13250;SDS011;6692;50.710;7.180;2022-10-15T09:01:25;235.60;;;227.73;;
13250;SDS011;6692;50.710;7.180;2022-10-15T09:03:30;285.87;;;276.23;;
13250;SDS011;6692;50.710;7.180;2022-10-15T09:05:45;279.97;;;270.57;;
13250;SDS011;6692;50.710;7.180;2022-10-15T09:07:55;290.53;;;280.73;;
13250;SDS011;6692;50.710;7.180;2022-10-15T09:09:55;291.93;;;282.03;;
13250;SDS011;6692;50.710;7.180;2022-10-15T09:14:10;277.40;;;267.97;;
13250;SDS011;6692;50.710;7.180;2022-10-15T09:16:12;294.13;;;284.17;;
13250;SDS011;6692;50.710;7.180;2022-10-15T09:18:17;278.60;;;269.17;;
13250;SDS011;6692;50.710;7.180;2022-10-15T09:20:17;270.10;;;261.07;;
13250;SDS011;6692;50.710;7.180;2022-10-15T09:22:17;281.00;;;271.50;;
13250;SDS011;6692;50.710;7.180;2022-10-15T09:24:20;291.57;;;281.77;;
13250;SDS011;6692;50.710;7.180;2022-10-15T09:27:30;274.07;;;264.83;;
13250;SDS011;6692;50.710;7.180;2022-10-15T09:28:42;283.17;;;273.67;;
13250;SDS011;6692;50.710;7.180;2022-10-15T09:30:50;278.17;;;268.80;;
13250;SDS011;6692;50.710;7.180;2022-10-15T09:33:02;288.23;;;278.57;;
13250;SDS011;6692;50.710;7.180;2022-10-15T09:35:16;280.33;;;270.87;;
13250;SDS011;6692;50.710;7.180;2022-10-15T09:37:24;268.10;;;259.03;;
13250;SDS011;6692;50.710;7.180;2022-10-15T09:39:31;277.50;;;268.10;;
13250;SDS011;6692;50.710;7.180;2022-10-15T09:41:38;291.03;;;281.03;;
13250;SDS011;6692;50.710;7.180;2022-10-15T09:43:42;301.30;;;291.00;;
13250;SDS011;6692;50.710;7.180;2022-10-15T09:45:42;297.80;;;287.60;;
13250;SDS011;6692;50.710;7.180;2022-10-15T09:47:43;307.73;;;297.17;;
13250;SDS011;6692;50.710;7.180;2022-10-15T09:49:44;294.47;;;284.37;;
13250;SDS011;6692;50.710;7.180;2022-10-15T09:51:53;311.53;;;300.77;;
13250;SDS011;6692;50.710;7.180;2022-10-15T09:53:57;312.37;;;301.63;;
13250;SDS011;6692;50.710;7.180;2022-10-15T09:56:15;314.43;;;303.50;;
13250;SDS011;6692;50.710;7.180;2022-10-15T09:58:18;315.10;;;304.33;;
13250;SDS011;6692;50.710;7.180;2022-10-15T10:00:18;318.63;;;307.60;;
13250;SDS011;6692;50.710;7.180;2022-10-15T10:02:20;327.20;;;315.77;;
13250;SDS011;6692;50.710;7.180;2022-10-15T10:04:20;327.63;;;316.23;;
13250;SDS011;6692;50.710;7.180;2022-10-15T10:06:21;328.37;;;316.83;;
13250;SDS011;6692;50.710;7.180;2022-10-15T10:08:22;329.13;;;317.70;;
13250;SDS011;6692;50.710;7.180;2022-10-15T10:10:24;343.90;;;331.83;;
13250;SDS011;6692;50.710;7.180;2022-10-15T10:12:24;339.73;;;327.87;;
13250;SDS011;6692;50.710;7.180;2022-10-15T10:14:28;331.37;;;319.80;;
13250;SDS011;6692;50.710;7.180;2022-10-15T10:16:30;336.93;;;325.20;;
13250;SDS011;6692;50.710;7.180;2022-10-15T10:18:30;352.90;;;340.30;;
13250;SDS011;6692;50.710;7.180;2022-10-15T10:20:32;362.90;;;350.00;;
13250;SDS011;6692;50.710;7.180;2022-10-15T10:22:40;373.33;;;360.03;;
13250;SDS011;6692;50.710;7.180;2022-10-15T10:24:32;365.27;;;352.40;;
13250;SDS011;6692;50.710;7.180;2022-10-15T10:26:33;363.93;;;351.00;;
13250;SDS011;6692;50.710;7.180;2022-10-15T10:30:59;357.40;;;344.67;;
13250;SDS011;6692;50.710;7.180;2022-10-15T10:33:01;323.60;;;312.43;;
13250;SDS011;6692;50.710;7.180;2022-10-15T10:35:03;287.93;;;278.07;;
13250;SDS011;6692;50.710;7.180;2022-10-15T10:37:04;335.00;;;323.37;;
13250;SDS011;6692;50.710;7.180;2022-10-15T10:39:14;332.13;;;320.57;;
13250;SDS011;6692;50.710;7.180;2022-10-15T10:41:27;321.77;;;310.63;;
13250;SDS011;6692;50.710;7.180;2022-10-15T10:43:26;314.17;;;303.27;;
13250;SDS011;6692;50.710;7.180;2022-10-15T10:45:26;324.80;;;313.57;;
13250;SDS011;6692;50.710;7.180;2022-10-15T10:47:28;329.20;;;317.67;;
13250;SDS011;6692;50.710;7.180;2022-10-15T10:49:33;357.43;;;344.83;;
13250;SDS011;6692;50.710;7.180;2022-10-15T10:51:35;353.00;;;340.50;;
13250;SDS011;6692;50.710;7.180;2022-10-15T10:53:38;362.10;;;349.30;;
13250;SDS011;6692;50.710;7.180;2022-10-15T10:55:38;359.17;;;346.53;;
13250;SDS011;6692;50.710;7.180;2022-10-15T10:57:43;378.13;;;364.67;;
13250;SDS011;6692;50.710;7.180;2022-10-15T10:59:44;373.47;;;359.97;;
13250;SDS011;6692;50.710;7.180;2022-10-15T11:01:43;363.70;;;350.70;;
13250;SDS011;6692;50.710;7.180;2022-10-15T11:03:44;394.40;;;380.17;;
13250;SDS011;6692;50.710;7.180;2022-10-15T11:05:44;382.43;;;368.70;;
13250;SDS011;6692;50.710;7.180;2022-10-15T11:07:46;351.17;;;338.70;;
13250;SDS011;6692;50.710;7.180;2022-10-15T11:09:54;345.03;;;332.73;;
13250;SDS011;6692;50.710;7.180;2022-10-15T11:11:57;364.50;;;351.47;;
13250;SDS011;6692;50.710;7.180;2022-10-15T11:14:19;380.13;;;366.43;;
13250;SDS011;6692;50.710;7.180;2022-10-15T11:16:35;363.37;;;350.30;;
13250;SDS011;6692;50.710;7.180;2022-10-15T11:20:57;398.40;;;383.87;;
13250;SDS011;6692;50.710;7.180;2022-10-15T11:23:12;388.87;;;374.77;;
13250;SDS011;6692;50.710;7.180;2022-10-15T11:25:31;389.87;;;375.87;;
13250;SDS011;6692;50.710;7.180;2022-10-15T11:27:44;387.50;;;373.37;;
13250;SDS011;6692;50.710;7.180;2022-10-15T11:29:52;410.43;;;395.33;;
13250;SDS011;6692;50.710;7.180;2022-10-15T11:32:03;418.97;;;403.70;;
13250;SDS011;6692;50.710;7.180;2022-10-15T11:34:19;418.53;;;403.20;;
13250;SDS011;6692;50.710;7.180;2022-10-15T11:36:22;434.93;;;418.73;;
13250;SDS011;6692;50.710;7.180;2022-10-15T11:38:24;428.40;;;412.83;;
13250;SDS011;6692;50.710;7.180;2022-10-15T11:40:31;421.60;;;405.87;;
13250;SDS011;6692;50.710;7.180;2022-10-15T11:42:34;420.37;;;404.87;;
13250;SDS011;6692;50.710;7.180;2022-10-15T11:49:46;376.57;;;363.13;;
13250;SDS011;6692;50.710;7.180;2022-10-15T11:52:02;350.67;;;338.20;;
13250;SDS011;6692;50.710;7.180;2022-10-15T11:54:12;377.20;;;363.63;;
13250;SDS011;6692;50.710;7.180;2022-10-15T11:56:17;403.30;;;388.40;;
13250;SDS011;6692;50.710;7.180;2022-10-15T12:00:33;405.27;;;390.33;;
13250;SDS011;6692;50.710;7.180;2022-10-15T12:02:33;442.10;;;425.50;;
13250;SDS011;6692;50.710;7.180;2022-10-15T12:04:36;448.10;;;431.17;;
13250;SDS011;6692;50.710;7.180;2022-10-15T12:06:36;388.53;;;374.37;;
13250;SDS011;6692;50.710;7.180;2022-10-15T12:08:37;396.93;;;382.57;;
13250;SDS011;6692;50.710;7.180;2022-10-15T12:10:43;435.43;;;419.07;;